Auburn, AL

9:00 PM CDT on September 15, 2014 (GMT -0500)
Auburn-opelika-pitts | Change Station
CLOSE
Current Station
Airport
Location: Auburn,
Elevation: 774 ft
Nearby Weather Stations

Elev 774 ft 32.62 °N, 85.43 °W | Updated 5 minutes ago

Rain
Rain
75 °F
Feels Like 75 °F
N
0
Wind Variable Wind from North

Today
High -- | Low -- °F
--% Chance of Precip.
Yesterday
High -- | Low -- °F
Precip. -- in
6:25 AM 6:47 PM
Waning Gibbous, 50% visible
Pressure 30.15 in
Visibility 10.0 miles
Clouds Scattered Clouds 12000 ft
Dew Point 70 °F
Humidity 83%
Rainfall 0.06 in
Snow Depth Not available.
UV 0 out of 12
Pollen 8.00 out of 12
Air Quality Not available.
Flu Activity Not available.
METAR KAUO 160155Z 00000KT 10SM SCT120 24/21 A3015 RMK AO1 TSE30

More Conditions Fewer Conditions

Pressure 30.15 in
Visibility 10.0 miles
Clouds Scattered Clouds 12000 ft
Dew Point 70 °F
Humidity 83%
Rainfall 0.06 in
Snow Depth Not available.
UV 0 out of 12
Pollen 8.00 out of 12
Air Quality Not available.
Flu Activity Not available.
METAR KAUO 160155Z 00000KT 10SM SCT120 24/21 A3015 RMK AO1 TSE30

More Conditions Fewer Conditions

10-Day Weather Forecast

Almanac

Astronomy

Sep. 15, 2014 Rise Set
Actual Time 6:25 AM CDT 6:47 PM CDT
Civil Twilight 6:00 AM CDT 7:12 PM CDT
Nautical Twilight 5:31 AM CDT 7:41 PM CDT
Astronomical Twilight 5:02 AM CDT 8:10 PM CDT
Moon 11:49 PM CDT (9/15) 1:05 PM CDT (9/15)
Length of Visible Light 13h 11m
Length of Day
12h 22m
Tomorrow will be 1m 59s shorter.
Waning Gibbous, 50% of the Moon is Illuminated
Today
Waning Gibbous
Sep 15
Last Quarter
Sep 24
New
Oct 1
First Quarter
Oct 8
Full

Today's Extremes

State Highs State Lows

Community

WunderPhotos

Upload Photos

1,753,650 photos uploaded!

WunderBlogs® & News

Nearby

Snow Depth

Station Depth Elevation
No new snow has been reported.

Earthquake Activity

City Distance Mag. Time & Date
No recent earthquake activity has been reported nearby.
Minimum magnitude displayed is 2.5.

Coastal Water Temperatures

Place Temperature
No Stations Reporting

Nearby Weather Stations